CPT5 weather

CLOSED Barrie/Little Lake Seaplane Base
Barrie, Ontario, Canada

Public forecast

Using degrees Celsius for public forecast. Weather courtesy of forecast.io.

METAR (pilot weather report)

Closest report is CFB Borden, 13.8 nm (25.6 km) SW. Retrieved 2019/05/19 16:00 UTC (37 minutes ago):

CYBN 191600Z AUTO 14008KT 9SM FEW055 21/13 A2979 RMK SLP089

TAF (pilot weather forecast)

Forecast is more than 12 hours old.

Closest forecast is CFB Borden, 13.8 nm (25.6 km) SW. Retrieved 2019/05/17 18:33 UTC (2 days ago):

TAF TAF CYBN 171730Z 1718/1806 33010G20KT P6SM OVC020 TEMPO 1718/1720 33020KT SCT020 BKN030 FM172000 33015G25KT P6SM SCT030 TEMPO 1720/1724 33020KT BKN030 BECMG 1800/1802 32010KT RMK FCST BASED ON AUTO OBS. NXT FCST BY 180000Z